Time;durP1;ratioP1;P1;durP2;ratioP2;P2;SDS_P1;SDS_P2;PMS_P1;PMS_P2;Temp;Humidity;BMP_temperature;BMP_pressure;BME280_temperature;BME280_humidity;BME280_pressure;Samples;Min_cycle;Max_cycle;Signal;HPM_P1;HPM_P2
2021/08/21 00:01:58;;;;;;;1.98;0.85;;;;;;;;;;5035057;28;20065;-73
2021/08/21 00:04:25;;;;;;;1.73;0.77;;;;;;;;;;5017844;28;20057;-73
2021/08/21 00:06:51;;;;;;;1.65;0.80;;;;;;;;;;5018089;28;20068;-73
2021/08/21 00:09:17;;;;;;;1.13;0.50;;;;;;;;;;5020182;28;20131;-73
2021/08/21 00:11:44;;;;;;;1.10;0.60;;;;;;;;;;5024229;28;20091;-74
2021/08/21 00:14:10;;;;;;;0.85;0.57;;;;;;;;;;5031601;28;20134;-73
2021/08/21 00:16:37;;;;;;;1.35;0.80;;;;;;;;;;5026978;28;20049;-74
2021/08/21 00:19:03;;;;;;;1.20;0.60;;;;;;;;;;5028416;28;20540;-75
2021/08/21 00:21:30;;;;;;;1.25;0.60;;;;;;;;;;5016428;28;20057;-74
2021/08/21 00:23:56;;;;;;;1.70;0.60;;;;;;;;;;5016575;28;20061;-74
2021/08/21 00:26:22;;;;;;;2.85;0.70;;;;;;;;;;5016336;28;20604;-75
2021/08/21 00:28:49;;;;;;;1.27;0.60;;;;;;;;;;5010449;28;20058;-74
2021/08/21 00:31:15;;;;;;;1.33;0.90;;;;;;;;;;5018506;28;20065;-74
2021/08/21 00:33:42;;;;;;;1.63;0.68;;;;;;;;;;5031093;28;20073;-74
2021/08/21 00:36:08;;;;;;;1.77;0.75;;;;;;;;;;5025328;28;20065;-74
2021/08/21 00:38:34;;;;;;;0.82;0.52;;;;;;;;;;5015710;28;20065;-74
2021/08/21 00:41:01;;;;;;;1.65;0.70;;;;;;;;;;5018629;28;20061;-74
2021/08/21 00:43:29;;;;;;;1.02;0.60;;;;;;;;;;5015294;28;20069;-74
2021/08/21 00:45:55;;;;;;;1.67;0.70;;;;;;;;;;5023316;28;20551;-74
2021/08/21 00:48:22;;;;;;;2.05;0.60;;;;;;;;;;5027069;28;20061;-74
2021/08/21 00:50:48;;;;;;;1.52;0.70;;;;;;;;;;5031053;28;20099;-74
2021/08/21 00:53:15;;;;;;;0.95;0.60;;;;;;;;;;5028136;28;20060;-75
2021/08/21 00:55:41;;;;;;;1.73;0.70;;;;;;;;;;5026599;28;20077;-73
2021/08/21 00:58:07;;;;;;;1.08;0.60;;;;;;;;;;5024736;28;20520;-74
2021/08/21 01:00:34;;;;;;;1.38;0.85;;;;;;;;;;5015959;28;20573;-74
2021/08/21 01:03:00;;;;;;;1.60;0.70;;;;;;;;;;5024372;28;20692;-75
2021/08/21 01:05:27;;;;;;;0.90;0.60;;;;;;;;;;5020270;28;20108;-73
2021/08/21 01:07:53;;;;;;;1.63;0.70;;;;;;;;;;5021235;28;20072;-74
2021/08/21 01:10:20;;;;;;;1.10;0.70;;;;;;;;;;5018136;28;20076;-75
2021/08/21 01:12:48;;;;;;;1.40;0.70;;;;;;;;;;5025141;28;20107;-75
2021/08/21 01:15:14;;;;;;;0.90;0.63;;;;;;;;;;5015603;28;20139;-73
2021/08/21 01:17:41;;;;;;;1.70;0.73;;;;;;;;;;5017289;28;20034;-74
2021/08/21 01:20:08;;;;;;;1.77;0.77;;;;;;;;;;5017420;28;20121;-75
2021/08/21 01:22:35;;;;;;;2.42;0.77;;;;;;;;;;5024677;28;20079;-74
2021/08/21 01:25:02;;;;;;;0.93;0.52;;;;;;;;;;5031360;28;20050;-74
2021/08/21 01:27:33;;;;;;;1.23;0.60;;;;;;;;;;5023727;28;20053;-73
2021/08/21 01:30:00;;;;;;;0.90;0.60;;;;;;;;;;5020361;28;20053;-74
2021/08/21 01:32:27;;;;;;;1.95;0.70;;;;;;;;;;5026368;28;20083;-75
2021/08/21 01:34:54;;;;;;;1.65;0.70;;;;;;;;;;5023996;28;20103;-73
2021/08/21 01:37:22;;;;;;;1.08;0.50;;;;;;;;;;5020958;28;20068;-75
2021/08/21 01:39:49;;;;;;;1.40;0.70;;;;;;;;;;5029741;28;20069;-73
2021/08/21 01:42:16;;;;;;;0.70;0.57;;;;;;;;;;5025526;28;20127;-74
2021/08/21 01:44:42;;;;;;;2.30;0.73;;;;;;;;;;5023543;28;20068;-74
2021/08/21 01:47:12;;;;;;;0.82;0.60;;;;;;;;;;5020630;28;20053;-74
2021/08/21 01:49:39;;;;;;;2.20;0.70;;;;;;;;;;5014971;28;20113;-74
2021/08/21 01:52:06;;;;;;;1.23;0.50;;;;;;;;;;5020563;28;20330;-75
2021/08/21 01:54:33;;;;;;;1.58;0.68;;;;;;;;;;5028063;28;20131;-76
2021/08/21 01:57:01;;;;;;;1.17;0.52;;;;;;;;;;5034723;28;20194;-75
2021/08/21 01:59:31;;;;;;;1.13;0.68;;;;;;;;;;5033240;28;20068;-74
2021/08/21 02:01:58;;;;;;;1.75;0.57;;;;;;;;;;5025717;28;20098;-75
2021/08/21 02:04:25;;;;;;;0.90;0.55;;;;;;;;;;5021724;28;20130;-74
2021/08/21 02:06:51;;;;;;;5.25;0.70;;;;;;;;;;5023571;28;20052;-74
2021/08/21 02:09:19;;;;;;;0.95;0.60;;;;;;;;;;5012759;28;20538;-74
2021/08/21 02:11:46;;;;;;;2.45;0.70;;;;;;;;;;5030550;28;20071;-74
2021/08/21 02:14:13;;;;;;;2.60;0.70;;;;;;;;;;5028488;28;20065;-74
2021/08/21 02:16:39;;;;;;;1.27;0.68;;;;;;;;;;5030545;28;20093;-74
2021/08/21 02:19:06;;;;;;;1.20;0.60;;;;;;;;;;5009383;28;20498;-74
2021/08/21 02:21:32;;;;;;;0.73;0.45;;;;;;;;;;5016243;28;20076;-74
2021/08/21 02:23:59;;;;;;;0.57;0.50;;;;;;;;;;5025016;28;20131;-75
2021/08/21 02:26:26;;;;;;;1.27;0.60;;;;;;;;;;5029421;28;20512;-74
2021/08/21 02:28:53;;;;;;;1.45;0.60;;;;;;;;;;5024586;28;20056;-74
2021/08/21 02:31:20;;;;;;;1.63;0.68;;;;;;;;;;5026108;28;20671;-75
2021/08/21 02:33:46;;;;;;;0.85;0.73;;;;;;;;;;5021927;28;20064;-74
2021/08/21 02:36:13;;;;;;;0.77;0.50;;;;;;;;;;5020144;28;20076;-75
2021/08/21 02:38:40;;;;;;;1.23;0.60;;;;;;;;;;5023937;28;20057;-74
2021/08/21 02:41:06;;;;;;;1.25;0.70;;;;;;;;;;5017118;28;20081;-74
2021/08/21 02:43:33;;;;;;;1.13;0.70;;;;;;;;;;5022753;28;20068;-74
2021/08/21 02:45:59;;;;;;;0.50;0.50;;;;;;;;;;5016667;28;20692;-76
2021/08/21 02:48:26;;;;;;;1.92;0.70;;;;;;;;;;5018487;28;20067;-74
2021/08/21 02:50:53;;;;;;;0.80;0.60;;;;;;;;;;5017031;28;20066;-75
2021/08/21 02:53:19;;;;;;;1.63;0.68;;;;;;;;;;5016617;28;20115;-74
2021/08/21 02:55:45;;;;;;;1.27;1.15;;;;;;;;;;5021544;28;20048;-74
2021/08/21 02:58:12;;;;;;;1.52;0.57;;;;;;;;;;5021463;28;20054;-74
2021/08/21 03:00:41;;;;;;;1.85;0.60;;;;;;;;;;5028921;28;20085;-73
2021/08/21 03:03:08;;;;;;;1.70;0.60;;;;;;;;;;5022207;28;20064;-74
2021/08/21 03:05:34;;;;;;;0.95;0.60;;;;;;;;;;5025915;28;20076;-74
2021/08/21 03:08:01;;;;;;;1.73;0.75;;;;;;;;;;5025356;28;20164;-75
2021/08/21 03:10:27;;;;;;;0.93;0.55;;;;;;;;;;5029300;28;20076;-73
2021/08/21 03:12:54;;;;;;;1.85;0.68;;;;;;;;;;5025338;28;20049;-75
2021/08/21 03:15:20;;;;;;;1.17;0.52;;;;;;;;;;5025744;28;20057;-74
2021/08/21 03:17:47;;;;;;;0.88;0.60;;;;;;;;;;5024030;28;20057;-74
2021/08/21 03:20:13;;;;;;;1.50;0.70;;;;;;;;;;5024689;28;20599;-73
2021/08/21 03:22:40;;;;;;;1.08;0.50;;;;;;;;;;5021265;28;20072;-74
2021/08/21 03:25:06;;;;;;;1.38;0.60;;;;;;;;;;5014021;28;20049;-74
2021/08/21 03:27:33;;;;;;;0.98;0.55;;;;;;;;;;5023704;28;20080;-73
2021/08/21 03:29:59;;;;;;;3.25;0.77;;;;;;;;;;5015941;28;20069;-74
2021/08/21 03:32:25;;;;;;;0.98;0.50;;;;;;;;;;5020353;28;20638;-74
2021/08/21 03:34:52;;;;;;;2.92;0.80;;;;;;;;;;5025019;28;20061;-73
2021/08/21 03:37:18;;;;;;;1.45;0.50;;;;;;;;;;5034406;28;20174;-74
2021/08/21 03:39:45;;;;;;;1.80;0.68;;;;;;;;;;5023320;28;20061;-73
2021/08/21 03:42:11;;;;;;;0.95;0.70;;;;;;;;;;5032372;28;20060;-74
2021/08/21 03:44:38;;;;;;;1.17;0.57;;;;;;;;;;5020168;28;20060;-75
2021/08/21 03:47:05;;;;;;;1.42;0.80;;;;;;;;;;5019460;28;20057;-75
2021/08/21 03:49:31;;;;;;;1.60;0.50;;;;;;;;;;5022743;28;20081;-74
2021/08/21 03:51:58;;;;;;;0.98;0.50;;;;;;;;;;5026278;28;20032;-73
2021/08/21 03:54:24;;;;;;;1.75;0.57;;;;;;;;;;5014090;28;20119;-73
2021/08/21 03:56:51;;;;;;;1.10;0.75;;;;;;;;;;5032124;28;20076;-73
2021/08/21 03:59:17;;;;;;;1.60;0.70;;;;;;;;;;5025593;28;20061;-74
2021/08/21 04:01:43;;;;;;;1.15;0.45;;;;;;;;;;5018894;28;20131;-75
2021/08/21 04:04:10;;;;;;;1.80;0.80;;;;;;;;;;5024719;28;20053;-74
2021/08/21 04:06:40;;;;;;;1.00;0.60;;;;;;;;;;5016771;28;20803;-74
2021/08/21 04:09:06;;;;;;;1.48;0.90;;;;;;;;;;5022593;28;20068;-74
2021/08/21 04:11:33;;;;;;;0.90;0.50;;;;;;;;;;5018010;28;20145;-74
2021/08/21 04:14:00;;;;;;;1.17;0.50;;;;;;;;;;5023754;28;20069;-75
2021/08/21 04:16:26;;;;;;;1.00;0.70;;;;;;;;;;5013116;28;20524;-74
2021/08/21 04:18:53;;;;;;;0.80;0.50;;;;;;;;;;5028399;28;20060;-75
2021/08/21 04:21:20;;;;;;;1.55;0.80;;;;;;;;;;5022194;28;20638;-74
2021/08/21 04:23:46;;;;;;;2.25;0.70;;;;;;;;;;5025971;28;20743;-73
2021/08/21 04:26:12;;;;;;;2.08;0.60;;;;;;;;;;5021349;28;20072;-74
2021/08/21 04:28:39;;;;;;;1.92;1.35;;;;;;;;;;5021321;28;20048;-74
2021/08/21 04:31:05;;;;;;;1.48;0.70;;;;;;;;;;5016883;28;20072;-74
2021/08/21 04:33:31;;;;;;;0.82;0.50;;;;;;;;;;5009192;28;20112;-74
2021/08/21 04:35:58;;;;;;;1.17;0.57;;;;;;;;;;5028290;28;20069;-74
2021/08/21 04:38:24;;;;;;;0.85;0.43;;;;;;;;;;5028678;28;20107;-73
2021/08/21 04:40:51;;;;;;;1.55;0.60;;;;;;;;;;5027288;28;20061;-73
2021/08/21 04:43:19;;;;;;;2.78;0.70;;;;;;;;;;5014154;28;20461;-74
2021/08/21 04:45:46;;;;;;;1.77;0.90;;;;;;;;;;5013247;28;20038;-73
2021/08/21 04:48:12;;;;;;;0.77;0.50;;;;;;;;;;5014123;28;20065;-74
2021/08/21 04:50:39;;;;;;;1.02;0.60;;;;;;;;;;5022075;28;20057;-74
2021/08/21 04:53:06;;;;;;;2.38;0.70;;;;;;;;;;5018165;28;20469;-74
2021/08/21 04:55:33;;;;;;;1.13;0.65;;;;;;;;;;5025122;28;20072;-75
2021/08/21 04:57:59;;;;;;;1.35;0.60;;;;;;;;;;5023008;28;20057;-76
2021/08/21 05:00:28;;;;;;;3.10;0.80;;;;;;;;;;5023210;28;20072;-75
2021/08/21 05:02:57;;;;;;;1.35;0.55;;;;;;;;;;5014789;28;20487;-76
2021/08/21 05:05:25;;;;;;;2.83;0.88;;;;;;;;;;5017641;28;21351;-75
2021/08/21 05:07:51;;;;;;;1.25;0.70;;;;;;;;;;5020381;28;20092;-75
2021/08/21 05:10:19;;;;;;;1.17;0.60;;;;;;;;;;5022966;28;20091;-74
2021/08/21 05:12:45;;;;;;;1.60;0.75;;;;;;;;;;5021010;28;20505;-75
2021/08/21 05:15:12;;;;;;;1.13;0.63;;;;;;;;;;5022387;28;20096;-76
2021/08/21 05:17:39;;;;;;;1.27;0.90;;;;;;;;;;5018709;28;20057;-75
2021/08/21 05:20:17;;;;;;;2.03;0.80;;;;;;;;;;5018861;28;20584;-76
2021/08/21 05:25:11;;;;;;;1.85;0.90;;;;;;;;;;5017420;28;20045;-76
2021/08/21 05:27:38;;;;;;;1.20;0.60;;;;;;;;;;5012646;28;20115;-75
2021/08/21 05:30:05;;;;;;;1.38;0.60;;;;;;;;;;5026298;28;20063;-74
2021/08/21 05:32:33;;;;;;;1.40;0.85;;;;;;;;;;5011959;28;20049;-74
2021/08/21 05:34:59;;;;;;;2.80;0.80;;;;;;;;;;5015738;28;20069;-76
2021/08/21 05:37:25;;;;;;;2.03;0.75;;;;;;;;;;5017477;28;20065;-74
2021/08/21 05:39:52;;;;;;;3.25;0.80;;;;;;;;;;5013741;28;20061;-76
2021/08/21 05:42:19;;;;;;;1.77;0.80;;;;;;;;;;5015863;28;20065;-75
2021/08/21 05:44:45;;;;;;;1.63;0.73;;;;;;;;;;5014173;28;20199;-75
2021/08/21 05:47:11;;;;;;;2.70;0.77;;;;;;;;;;5009652;28;20069;-76
2021/08/21 05:49:38;;;;;;;1.90;0.90;;;;;;;;;;5012079;28;20511;-76
2021/08/21 05:52:04;;;;;;;4.75;1.00;;;;;;;;;;5009467;28;20685;-76
2021/08/21 05:54:31;;;;;;;2.20;0.85;;;;;;;;;;5015106;28;20532;-74
2021/08/21 05:56:57;;;;;;;3.50;1.13;;;;;;;;;;5029656;28;20130;-74
2021/08/21 05:59:24;;;;;;;3.58;1.00;;;;;;;;;;5020769;28;20057;-77
2021/08/21 06:01:51;;;;;;;1.85;0.80;;;;;;;;;;5016689;28;20041;-78
2021/08/21 06:04:17;;;;;;;2.03;1.10;;;;;;;;;;5035686;28;20064;-78
2021/08/21 06:06:44;;;;;;;2.60;1.40;;;;;;;;;;5014468;28;20509;-78
2021/08/21 06:09:10;;;;;;;3.25;1.30;;;;;;;;;;5014797;28;20069;-76
2021/08/21 06:11:36;;;;;;;3.75;1.40;;;;;;;;;;5026080;28;20434;-77
2021/08/21 06:14:03;;;;;;;3.08;1.00;;;;;;;;;;5025677;28;20057;-77
2021/08/21 06:16:29;;;;;;;4.93;1.17;;;;;;;;;;5013615;28;20085;-78
2021/08/21 06:18:56;;;;;;;4.07;1.40;;;;;;;;;;5013835;28;20061;-77
2021/08/21 06:21:22;;;;;;;3.17;1.60;;;;;;;;;;5011467;28;20061;-78
2021/08/21 06:23:48;;;;;;;2.67;1.10;;;;;;;;;;5021515;28;20061;-77
2021/08/21 06:26:15;;;;;;;3.22;1.35;;;;;;;;;;5015623;28;20080;-77
2021/08/21 06:28:41;;;;;;;3.45;1.30;;;;;;;;;;5022821;28;20049;-78
2021/08/21 06:31:07;;;;;;;2.40;1.45;;;;;;;;;;5010601;28;20061;-78
2021/08/21 06:33:34;;;;;;;4.80;1.30;;;;;;;;;;5016395;28;20057;-77
2021/08/21 06:36:00;;;;;;;3.97;1.30;;;;;;;;;;5015197;28;20413;-80
2021/08/21 06:38:27;;;;;;;4.85;1.48;;;;;;;;;;5012814;28;20054;-83
2021/08/21 06:40:53;;;;;;;6.82;1.30;;;;;;;;;;5031545;28;20064;-79
2021/08/21 06:43:20;;;;;;;6.88;1.20;;;;;;;;;;5023223;28;20060;-78
2021/08/21 06:45:48;;;;;;;4.75;1.55;;;;;;;;;;5013079;28;20057;-79
2021/08/21 06:48:15;;;;;;;4.22;1.50;;;;;;;;;;5020039;28;20502;-79
2021/08/21 06:50:43;;;;;;;5.93;1.50;;;;;;;;;;5029617;28;20045;-78
2021/08/21 06:53:10;;;;;;;3.72;1.50;;;;;;;;;;5008997;28;20058;-78
2021/08/21 06:55:36;;;;;;;3.75;1.40;;;;;;;;;;5023145;28;20527;-79
2021/08/21 06:58:03;;;;;;;3.30;1.30;;;;;;;;;;5017021;28;20054;-77
2021/08/21 07:00:30;;;;;;;5.75;1.95;;;;;;;;;;5020141;28;20107;-78
2021/08/21 07:02:56;;;;;;;4.60;2.35;;;;;;;;;;5015589;28;20053;-78
2021/08/21 07:05:23;;;;;;;4.32;1.80;;;;;;;;;;5026462;28;20057;-78
2021/08/21 07:07:49;;;;;;;4.90;1.83;;;;;;;;;;5014942;28;20069;-77
2021/08/21 07:10:15;;;;;;;4.72;1.55;;;;;;;;;;5016842;28;20061;-77
2021/08/21 07:12:42;;;;;;;3.42;1.40;;;;;;;;;;5010054;28;20457;-77
2021/08/21 07:15:08;;;;;;;3.92;1.50;;;;;;;;;;5011745;28;20053;-77
2021/08/21 07:17:35;;;;;;;4.90;1.50;;;;;;;;;;5012792;28;20037;-76
2021/08/21 07:20:01;;;;;;;3.92;1.52;;;;;;;;;;5008860;28;20041;-77
2021/08/21 07:22:28;;;;;;;3.45;1.27;;;;;;;;;;5017813;28;20140;-78
2021/08/21 07:24:54;;;;;;;5.65;1.75;;;;;;;;;;5014496;28;20053;-78
2021/08/21 07:27:20;;;;;;;5.78;1.30;;;;;;;;;;5018820;28;20053;-74
2021/08/21 07:29:47;;;;;;;3.33;1.52;;;;;;;;;;5021798;28;20809;-74
2021/08/21 07:32:13;;;;;;;4.35;1.58;;;;;;;;;;5009473;28;20112;-73
2021/08/21 07:34:40;;;;;;;4.53;1.73;;;;;;;;;;5011777;28;20072;-72
2021/08/21 07:37:07;;;;;;;8.10;1.77;;;;;;;;;;5014740;28;20042;-73
2021/08/21 07:39:33;;;;;;;5.22;1.80;;;;;;;;;;5019426;28;20033;-74
2021/08/21 07:41:59;;;;;;;3.85;1.30;;;;;;;;;;5017042;28;20187;-77
2021/08/21 07:44:26;;;;;;;8.35;1.58;;;;;;;;;;5019605;28;20505;-74
2021/08/21 07:46:52;;;;;;;3.97;1.52;;;;;;;;;;5010620;28;20116;-74
2021/08/21 07:49:19;;;;;;;4.05;1.65;;;;;;;;;;5021651;28;20069;-73
2021/08/21 07:51:45;;;;;;;4.80;1.35;;;;;;;;;;5015250;28;20065;-74
2021/08/21 07:54:11;;;;;;;5.63;1.77;;;;;;;;;;5017012;28;20076;-73
2021/08/21 07:56:38;;;;;;;6.50;1.60;;;;;;;;;;5019929;28;20069;-74
2021/08/21 07:59:04;;;;;;;6.45;1.83;;;;;;;;;;5023100;28;20444;-74
2021/08/21 08:01:31;;;;;;;6.25;1.45;;;;;;;;;;5010105;28;20094;-76
2021/08/21 08:03:57;;;;;;;2.90;1.33;;;;;;;;;;5023168;28;20064;-73
2021/08/21 08:06:23;;;;;;;3.40;1.10;;;;;;;;;;5019832;28;20070;-73
2021/08/21 08:08:50;;;;;;;6.43;1.90;;;;;;;;;;5015961;28;20057;-72
2021/08/21 08:11:17;;;;;;;2.97;1.40;;;;;;;;;;5019895;28;20634;-73
2021/08/21 08:13:43;;;;;;;6.00;1.92;;;;;;;;;;5013218;28;20386;-72
2021/08/21 08:16:09;;;;;;;5.03;1.50;;;;;;;;;;5016877;28;20591;-73
2021/08/21 08:18:36;;;;;;;5.07;1.75;;;;;;;;;;5014081;28;20054;-73
2021/08/21 08:21:02;;;;;;;4.18;1.33;;;;;;;;;;5018413;28;20515;-73
2021/08/21 08:23:29;;;;;;;4.35;1.27;;;;;;;;;;5015510;28;20061;-72
2021/08/21 08:25:55;;;;;;;4.90;1.52;;;;;;;;;;5018535;28;20080;-72
2021/08/21 08:28:22;;;;;;;5.53;2.05;;;;;;;;;;5010543;28;20061;-72
2021/08/21 08:30:48;;;;;;;4.05;1.67;;;;;;;;;;5015386;28;20052;-72
2021/08/21 08:33:15;;;;;;;9.05;1.60;;;;;;;;;;5015108;28;20057;-73
2021/08/21 08:35:41;;;;;;;8.02;2.10;;;;;;;;;;5023836;28;20076;-72
2021/08/21 08:38:07;;;;;;;6.15;1.17;;;;;;;;;;5024035;28;20066;-73
2021/08/21 08:40:34;;;;;;;4.18;1.77;;;;;;;;;;5024764;28;20061;-74
2021/08/21 08:43:02;;;;;;;3.30;1.38;;;;;;;;;;5020822;28;20054;-73
2021/08/21 08:45:29;;;;;;;4.63;2.03;;;;;;;;;;5030185;28;20171;-73
2021/08/21 08:47:56;;;;;;;6.45;1.77;;;;;;;;;;5022954;28;20065;-72
2021/08/21 08:50:22;;;;;;;4.28;1.63;;;;;;;;;;5022492;28;20064;-72
2021/08/21 08:52:49;;;;;;;6.68;1.98;;;;;;;;;;5016847;28;20529;-72
2021/08/21 08:55:15;;;;;;;4.07;1.80;;;;;;;;;;5023150;28;20068;-71
2021/08/21 08:57:42;;;;;;;4.78;1.75;;;;;;;;;;5021799;28;20054;-72
2021/08/21 09:00:10;;;;;;;5.82;1.50;;;;;;;;;;5029656;28;20049;-73
2021/08/21 09:02:41;;;;;;;4.45;1.42;;;;;;;;;;5030174;28;20674;-71
2021/08/21 09:05:09;;;;;;;6.55;1.33;;;;;;;;;;5023842;28;20064;-72
2021/08/21 09:07:42;;;;;;;6.25;1.80;;;;;;;;;;5023505;28;20080;-72
2021/08/21 09:10:12;;;;;;;7.20;1.80;;;;;;;;;;5023215;28;20056;-73
2021/08/21 09:12:39;;;;;;;5.32;1.75;;;;;;;;;;5031196;28;20324;-72
2021/08/21 09:15:25;;;;;;;4.85;1.63;;;;;;;;;;5016678;28;20552;-72
2021/08/21 09:17:59;;;;;;;3.55;1.48;;;;;;;;;;5024042;28;20517;-71
2021/08/21 09:20:25;;;;;;;4.50;1.38;;;;;;;;;;5024964;28;20468;-72
2021/08/21 09:22:51;;;;;;;6.22;1.70;;;;;;;;;;5027171;28;20423;-71
2021/08/21 09:25:28;;;;;;;4.13;1.50;;;;;;;;;;5006930;28;20062;-75
2021/08/21 09:27:54;;;;;;;9.60;1.77;;;;;;;;;;4997824;28;20108;-75
2021/08/21 09:30:21;;;;;;;4.80;1.50;;;;;;;;;;5008525;28;20861;-75
2021/08/21 09:32:47;;;;;;;3.83;1.60;;;;;;;;;;5003444;28;20502;-75
2021/08/21 09:35:14;;;;;;;3.72;1.50;;;;;;;;;;5009924;28;20065;-74
2021/08/21 09:37:46;;;;;;;5.32;1.52;;;;;;;;;;4998982;28;20073;-74
2021/08/21 09:40:31;;;;;;;4.15;1.33;;;;;;;;;;4998276;28;20053;-73
2021/08/21 09:42:58;;;;;;;6.28;1.70;;;;;;;;;;5002312;28;20053;-75
2021/08/21 09:45:25;;;;;;;5.28;1.73;;;;;;;;;;5031104;28;20115;-75
2021/08/21 09:47:58;;;;;;;3.63;1.52;;;;;;;;;;5023939;28;20061;-75
2021/08/21 09:50:25;;;;;;;3.83;1.58;;;;;;;;;;5021886;28;20033;-75
2021/08/21 09:52:52;;;;;;;6.72;2.60;;;;;;;;;;5020785;28;20503;-75
2021/08/21 09:55:20;;;;;;;4.10;2.30;;;;;;;;;;5017828;28;20054;-74
2021/08/21 09:57:59;;;;;;;3.88;1.70;;;;;;;;;;5014704;28;20568;-75
2021/08/21 10:00:26;;;;;;;4.05;1.38;;;;;;;;;;5014435;28;21044;-74
2021/08/21 10:02:54;;;;;;;3.47;1.60;;;;;;;;;;5009151;28;20054;-77
2021/08/21 10:05:22;;;;;;;6.03;1.60;;;;;;;;;;5014854;28;20053;-76
2021/08/21 10:07:52;;;;;;;4.80;1.40;;;;;;;;;;5019234;28;20053;-76
2021/08/21 10:10:23;;;;;;;7.90;1.70;;;;;;;;;;5015646;28;20057;-76
2021/08/21 10:12:54;;;;;;;5.15;1.70;;;;;;;;;;5017958;28;20131;-76
2021/08/21 10:15:21;;;;;;;2.97;1.58;;;;;;;;;;5018426;28;20061;-77
2021/08/21 10:17:48;;;;;;;4.63;1.70;;;;;;;;;;5017497;28;20772;-76
2021/08/21 10:20:15;;;;;;;4.45;1.50;;;;;;;;;;5026888;28;20446;-75
2021/08/21 10:22:41;;;;;;;6.32;1.67;;;;;;;;;;5022086;28;20057;-75
2021/08/21 10:25:09;;;;;;;3.55;1.77;;;;;;;;;;5022187;28;20065;-79
2021/08/21 10:27:45;;;;;;;5.95;1.48;;;;;;;;;;5022798;28;20084;-77
2021/08/21 10:30:20;;;;;;;4.82;1.50;;;;;;;;;;5014655;28;20084;-76
2021/08/21 10:33:05;;;;;;;3.40;1.38;;;;;;;;;;5019727;28;20160;-77
2021/08/21 10:35:46;;;;;;;5.05;1.70;;;;;;;;;;5028928;28;20045;-74
2021/08/21 10:38:35;;;;;;;3.38;1.50;;;;;;;;;;5030832;28;20446;-77
2021/08/21 10:41:10;;;;;;;3.80;1.65;;;;;;;;;;5010769;28;20110;-77
2021/08/21 10:43:43;;;;;;;4.65;1.50;;;;;;;;;;5034856;28;20080;-75
2021/08/21 10:46:09;;;;;;;4.90;1.60;;;;;;;;;;5011837;28;20053;-75
2021/08/21 10:48:36;;;;;;;3.50;1.42;;;;;;;;;;5019922;28;20060;-75
2021/08/21 10:51:06;;;;;;;3.78;1.45;;;;;;;;;;5015417;28;20490;-79
2021/08/21 10:53:41;;;;;;;4.80;1.50;;;;;;;;;;5025302;28;20058;-77
2021/08/21 10:56:27;;;;;;;5.18;1.50;;;;;;;;;;5030369;28;20061;-76
2021/08/21 10:58:55;;;;;;;2.60;1.55;;;;;;;;;;5010348;28;20057;-76
2021/08/21 11:01:23;;;;;;;5.90;1.60;;;;;;;;;;5019434;28;20072;-75
2021/08/21 11:03:50;;;;;;;4.45;1.50;;;;;;;;;;5017458;28;20090;-75
2021/08/21 11:06:16;;;;;;;4.32;1.40;;;;;;;;;;5014996;28;20056;-74
2021/08/21 11:08:43;;;;;;;2.55;1.30;;;;;;;;;;5018794;28;20056;-74
2021/08/21 11:13:54;;;;;;;6.00;1.40;;;;;;;;;;5019560;28;20061;-75
2021/08/21 11:16:21;;;;;;;3.28;1.52;;;;;;;;;;5010854;28;20073;-77
2021/08/21 11:18:49;;;;;;;3.47;1.10;;;;;;;;;;5017264;28;20466;-77
2021/08/21 11:21:31;;;;;;;4.00;1.38;;;;;;;;;;5020477;28;20131;-76
2021/08/21 11:23:58;;;;;;;3.08;1.13;;;;;;;;;;5020341;28;20054;-77
2021/08/21 11:26:24;;;;;;;5.15;1.58;;;;;;;;;;5020137;28;20069;-76
2021/08/21 11:29:17;;;;;;;2.00;0.88;;;;;;;;;;5025642;28;20111;-77
2021/08/21 11:31:53;;;;;;;3.50;1.10;;;;;;;;;;5016535;28;20054;-75
2021/08/21 11:34:21;;;;;;;3.53;1.42;;;;;;;;;;5008110;28;20312;-75
2021/08/21 11:36:48;;;;;;;3.45;1.25;;;;;;;;;;5015824;28;20469;-75
2021/08/21 11:39:14;;;;;;;3.65;1.23;;;;;;;;;;5024497;28;20068;-76
2021/08/21 11:41:52;;;;;;;3.17;1.08;;;;;;;;;;5020899;28;20123;-75
2021/08/21 11:44:26;;;;;;;5.68;1.45;;;;;;;;;;5023837;28;20130;-76
2021/08/21 11:47:09;;;;;;;3.47;1.27;;;;;;;;;;5014563;28;20053;-75
2021/08/21 11:49:36;;;;;;;4.00;1.48;;;;;;;;;;5001430;28;21301;-75
2021/08/21 11:52:04;;;;;;;3.40;1.10;;;;;;;;;;5014789;28;20065;-75
2021/08/21 11:54:30;;;;;;;4.82;1.08;;;;;;;;;;5015148;28;20065;-76
2021/08/21 11:57:00;;;;;;;2.90;0.98;;;;;;;;;;5023843;28;20115;-74
2021/08/21 11:59:27;;;;;;;2.85;1.08;;;;;;;;;;5020350;28;21322;-75
2021/08/21 12:02:13;;;;;;;1.55;0.85;;;;;;;;;;5026642;28;20100;-74
2021/08/21 12:04:55;;;;;;;3.30;1.15;;;;;;;;;;5030600;28;21380;-77
2021/08/21 12:07:32;;;;;;;2.15;1.15;;;;;;;;;;5019669;28;20893;-76
2021/08/21 12:09:58;;;;;;;3.83;1.23;;;;;;;;;;5022948;28;20073;-75
2021/08/21 12:12:25;;;;;;;5.55;1.30;;;;;;;;;;5023559;28;20095;-75
2021/08/21 12:14:51;;;;;;;3.60;1.08;;;;;;;;;;5028411;28;20895;-75
2021/08/21 12:17:18;;;;;;;1.73;1.00;;;;;;;;;;5034811;28;20068;-75
2021/08/21 12:19:44;;;;;;;4.03;0.98;;;;;;;;;;5025418;28;20061;-74
2021/08/21 12:22:12;;;;;;;2.78;1.10;;;;;;;;;;5028362;28;20696;-74
2021/08/21 12:24:51;;;;;;;4.40;1.23;;;;;;;;;;5021730;28;20590;-75
2021/08/21 12:27:25;;;;;;;3.92;1.30;;;;;;;;;;5017704;28;20061;-74
2021/08/21 12:30:10;;;;;;;3.40;1.00;;;;;;;;;;5018372;28;20633;-75
2021/08/21 12:32:36;;;;;;;3.85;1.10;;;;;;;;;;5020545;28;20096;-74
2021/08/21 12:35:12;;;;;;;4.10;1.23;;;;;;;;;;5019073;28;20548;-75
2021/08/21 12:37:39;;;;;;;4.97;1.27;;;;;;;;;;5016554;28;20061;-76
2021/08/21 12:40:16;;;;;;;2.90;1.13;;;;;;;;;;5016232;28;20158;-74
2021/08/21 12:42:43;;;;;;;4.05;1.30;;;;;;;;;;5019695;28;20057;-74
2021/08/21 12:45:19;;;;;;;3.42;1.10;;;;;;;;;;5017627;28;20567;-73
2021/08/21 12:47:45;;;;;;;3.78;1.50;;;;;;;;;;5019320;28;20587;-74
2021/08/21 12:50:12;;;;;;;2.55;1.00;;;;;;;;;;5018323;28;20058;-74
2021/08/21 12:52:40;;;;;;;3.20;1.00;;;;;;;;;;5017350;28;20062;-74
2021/08/21 12:55:08;;;;;;;3.78;1.40;;;;;;;;;;5017008;28;20045;-76
2021/08/21 12:57:34;;;;;;;3.35;1.05;;;;;;;;;;5017873;28;20071;-75
2021/08/21 13:00:02;;;;;;;3.20;1.40;;;;;;;;;;5013793;28;20505;-76
2021/08/21 13:02:28;;;;;;;3.88;1.10;;;;;;;;;;5028491;28;20054;-74
2021/08/21 13:04:58;;;;;;;4.15;1.17;;;;;;;;;;5028120;28;20139;-74
2021/08/21 13:07:44;;;;;;;3.85;1.20;;;;;;;;;;5011725;28;20589;-74
2021/08/21 13:10:13;;;;;;;2.45;1.02;;;;;;;;;;5017573;28;20698;-74
2021/08/21 13:12:40;;;;;;;4.65;1.45;;;;;;;;;;5001480;28;20061;-74
2021/08/21 13:15:07;;;;;;;3.97;1.55;;;;;;;;;;5018235;28;20057;-76
2021/08/21 13:17:34;;;;;;;2.60;1.30;;;;;;;;;;5015724;28;20069;-74
2021/08/21 13:20:00;;;;;;;3.22;1.20;;;;;;;;;;5014194;28;20064;-74
2021/08/21 13:22:30;;;;;;;3.45;1.15;;;;;;;;;;5016177;28;21795;-73
2021/08/21 13:24:57;;;;;;;4.32;1.23;;;;;;;;;;5017624;28;20057;-74
2021/08/21 13:27:23;;;;;;;3.28;1.30;;;;;;;;;;5021547;28;20049;-75
2021/08/21 13:29:50;;;;;;;3.08;1.23;;;;;;;;;;5019977;28;20451;-74
2021/08/21 13:32:16;;;;;;;3.28;1.45;;;;;;;;;;5012810;28;20080;-73
2021/08/21 13:34:43;;;;;;;3.60;1.35;;;;;;;;;;5012850;28;20502;-74
2021/08/21 13:37:09;;;;;;;4.75;1.52;;;;;;;;;;5015700;28;20076;-75
2021/08/21 13:39:36;;;;;;;4.40;1.30;;;;;;;;;;5014080;28;20719;-74
2021/08/21 13:42:03;;;;;;;5.25;1.30;;;;;;;;;;5013803;28;20026;-76
2021/08/21 13:44:29;;;;;;;4.75;1.35;;;;;;;;;;5018059;28;20065;-75
2021/08/21 13:46:56;;;;;;;3.10;1.20;;;;;;;;;;5015921;28;20092;-75
2021/08/21 13:49:22;;;;;;;4.32;1.40;;;;;;;;;;5021944;28;20057;-74
2021/08/21 13:51:48;;;;;;;2.53;1.25;;;;;;;;;;5016975;28;20072;-74
2021/08/21 13:54:15;;;;;;;3.42;1.33;;;;;;;;;;5015861;28;20069;-75
2021/08/21 13:56:41;;;;;;;3.85;1.50;;;;;;;;;;5020449;28;20073;-74
2021/08/21 13:59:07;;;;;;;2.72;1.20;;;;;;;;;;5022182;28;20065;-73
2021/08/21 14:01:34;;;;;;;4.80;1.30;;;;;;;;;;5025346;28;20061;-74
2021/08/21 14:04:00;;;;;;;3.80;1.38;;;;;;;;;;5018255;28;20061;-74
2021/08/21 14:06:27;;;;;;;3.35;1.33;;;;;;;;;;5015365;28;20176;-74
2021/08/21 14:08:54;;;;;;;3.63;1.25;;;;;;;;;;5013240;28;20523;-75
2021/08/21 14:11:20;;;;;;;4.78;1.27;;;;;;;;;;5017850;28;20100;-74
2021/08/21 14:13:46;;;;;;;4.22;1.30;;;;;;;;;;5018329;28;20068;-74
2021/08/21 14:16:13;;;;;;;3.40;1.45;;;;;;;;;;5014001;28;20041;-75
2021/08/21 14:18:39;;;;;;;2.50;1.15;;;;;;;;;;5019106;28;20128;-74
2021/08/21 14:21:07;;;;;;;3.25;1.25;;;;;;;;;;5016293;28;20048;-75
2021/08/21 14:23:33;;;;;;;4.18;1.40;;;;;;;;;;5021793;28;20065;-74
2021/08/21 14:25:59;;;;;;;2.83;1.25;;;;;;;;;;5030977;28;20076;-75
2021/08/21 14:28:26;;;;;;;3.22;1.27;;;;;;;;;;5018290;28;20650;-75
2021/08/21 14:30:52;;;;;;;2.90;1.30;;;;;;;;;;5015501;28;20084;-75
2021/08/21 14:33:19;;;;;;;3.97;1.30;;;;;;;;;;5011834;28;20057;-75
2021/08/21 14:35:45;;;;;;;4.50;1.45;;;;;;;;;;5011714;28;20076;-75
2021/08/21 14:38:12;;;;;;;3.40;1.20;;;;;;;;;;5010267;28;20689;-74
2021/08/21 14:40:38;;;;;;;3.55;1.30;;;;;;;;;;5010217;28;20123;-75
2021/08/21 14:43:05;;;;;;;4.00;1.40;;;;;;;;;;5017648;28;20202;-74
2021/08/21 14:45:32;;;;;;;2.63;1.20;;;;;;;;;;5012939;28;20436;-76
2021/08/21 14:47:58;;;;;;;2.58;1.30;;;;;;;;;;5019700;28;20115;-75
2021/08/21 14:50:25;;;;;;;4.25;1.20;;;;;;;;;;5027852;28;20049;-74
2021/08/21 14:52:51;;;;;;;3.42;1.40;;;;;;;;;;5020075;28;20074;-74